Huvudsida
METAR-TAF:

METAR-TAF

Flygplatser :

La Gomera Airport

La Gomera, Spanien

latitud: 28-01-47N, longitud: 017-12-53W, höjd: 218 m

Aktuellt väderrapport

Denna rapport gjordes för 35 minuter sedan, klockan 11:30 UTC
Vind 6 kt från sydväst, varierande mellan syd och väst
Temperatur 22°C
Fuktighet 65%
Tryck 1022 hPa
Sikt 10 km eller mer
Inga moln under 1 500 m eller inga cumulonimbus

METAR: GCGM 161130Z 22006KT 170V260 CAVOK 22/15 Q1022 RMK R09/18005KT 140V240 ARP/20006KT 150V240

Tid: 13:05 (12:05 UTC)

Väderprognos

Denna rapport gjordes för 4 timmar och 5 minuter sedan, klockan 08:00 UTC
Prognos gäller från 16 kl. 09 UTC till 17 kl. 09 UTC
Vind 8 kt från sydväst
Sikt 10 km eller mer
Få moln på en höjd av 2000 ft

TAF: GCGM 160800Z 1609/1709 22008KT 9999 FEW020 TX24/1614Z TN20/1706Z

Aktuella väderrapporter och prognoser från 4000 flygplatser (METAR- och TAF-rapporter).

De tillgängliga stationerna syns som gula och röda prickar på kartan.

För musen över prickarna för att se namnen på stationerna.

Klicka sedan för att få väderrapporter och prognoser.

För att ändra kartan: Klicka på de gröna knapparna med ett svart kors på för att zooma in; den gröna knappen med ett streck på för att zooma ut; eller på de gröna pilarna för angränsande kartor.


METAR-TAF: